createdAt,value
2019-05-02T00:00:13.749Z,4.63
2019-05-02T00:02:43.756Z,3.90
2019-05-02T00:05:13.083Z,4.10
2019-05-02T00:07:43.219Z,3.50
2019-05-02T00:10:14.826Z,3.93
2019-05-02T00:12:44.634Z,4.07
2019-05-02T00:15:17.564Z,3.87
2019-05-02T00:17:46.196Z,4.00
2019-05-02T00:20:21.014Z,3.70
2019-05-02T00:22:51.808Z,3.70
2019-05-02T00:25:18.048Z,4.20
2019-05-02T00:27:46.528Z,4.00
2019-05-02T00:30:16.887Z,4.00
2019-05-02T00:32:45.319Z,4.17
2019-05-02T00:35:17.537Z,3.50
2019-05-02T00:37:46.010Z,4.10
2019-05-02T00:40:14.485Z,4.20
2019-05-02T00:42:42.878Z,4.10
2019-05-02T00:45:14.004Z,4.23
2019-05-02T00:47:47.776Z,3.83
2019-05-02T00:50:13.494Z,4.20
2019-05-02T00:52:42.004Z,4.30
2019-05-02T00:55:10.568Z,4.37
2019-05-02T00:57:38.965Z,3.57
2019-05-02T01:00:13.455Z,3.77
2019-05-02T01:02:52.794Z,4.13
2019-05-02T01:05:21.313Z,3.90
2019-05-02T01:07:49.708Z,4.13
2019-05-02T01:10:21.335Z,4.07
2019-05-02T01:12:48.699Z,4.10
2019-05-02T01:15:17.156Z,4.13
2019-05-02T01:17:45.784Z,3.60
2019-05-02T01:20:14.746Z,3.90
2019-05-02T01:22:47.063Z,3.73
2019-05-02T01:25:15.694Z,4.53
2019-05-02T01:27:54.149Z,4.13
2019-05-02T01:30:43.823Z,3.93
2019-05-02T01:33:14.039Z,4.33
2019-05-02T01:36:01.749Z,3.70
2019-05-02T01:38:33.683Z,3.97
2019-05-02T01:41:02.198Z,3.77
2019-05-02T01:43:31.838Z,4.10
2019-05-02T01:46:00.726Z,4.13
2019-05-02T01:48:29.114Z,4.07
2019-05-02T01:50:57.577Z,3.93
2019-05-02T01:53:29.213Z,3.93
2019-05-02T01:55:57.249Z,4.20
2019-05-02T01:58:26.832Z,4.13
2019-05-02T02:00:55.505Z,3.80
2019-05-02T02:03:24.106Z,4.00
2019-05-02T02:05:52.569Z,4.20
2019-05-02T02:08:21.118Z,4.00
2019-05-02T02:10:50.575Z,4.33
2019-05-02T02:13:19.803Z,3.90
2019-05-02T02:15:48.403Z,3.73
2019-05-02T02:18:22.195Z,3.90
2019-05-02T02:20:52.878Z,4.07
2019-05-02T02:23:23.277Z,3.90
2019-05-02T02:26:12.182Z,4.30
2019-05-02T02:29:03.218Z,3.80
2019-05-02T02:31:30.396Z,4.00
2019-05-02T02:33:58.786Z,4.47
2019-05-02T02:39:06.919Z,4.47
2019-05-02T02:44:45.412Z,3.90
2019-05-02T02:49:48.286Z,4.30
2019-05-02T02:52:16.679Z,4.07
2019-05-02T02:54:45.133Z,3.90
2019-05-02T02:57:23.770Z,4.13
2019-05-02T02:59:43.646Z,4.67
2019-05-02T03:02:12.380Z,4.20
2019-05-02T03:05:01.526Z,3.87
2019-05-02T03:07:49.246Z,4.10
2019-05-02T03:10:17.662Z,4.17
2019-05-02T03:13:05.192Z,4.40
2019-05-02T03:20:42.780Z,3.90
2019-05-02T03:23:24.218Z,4.30
2019-05-02T03:26:15.162Z,4.23
2019-05-02T03:29:01.375Z,4.50
2019-05-02T03:31:49.072Z,4.03
2019-05-02T03:37:31.014Z,4.20
2019-05-02T03:40:41.359Z,4.07
2019-05-02T03:43:09.540Z,4.70
2019-05-02T03:48:33.306Z,4.10
2019-05-02T03:51:05.025Z,3.90
2019-05-02T03:54:11.840Z,4.67
2019-05-02T03:57:32.037Z,4.13
2019-05-02T04:00:13.781Z,4.43
2019-05-02T04:06:27.724Z,4.43
2019-05-02T04:09:41.979Z,4.13
2019-05-02T04:12:46.343Z,4.00
2019-05-02T04:15:14.792Z,3.60
2019-05-02T04:18:23.148Z,3.93
2019-05-02T04:21:31.463Z,3.97
2019-05-02T04:24:15.684Z,3.93
2019-05-02T04:27:27.811Z,3.90
2019-05-02T04:32:25.977Z,3.80
2019-05-02T04:34:57.705Z,3.83
2019-05-02T04:37:24.528Z,3.77
2019-05-02T04:39:53.646Z,4.27
2019-05-02T04:45:14.200Z,4.23
2019-05-02T04:47:29.081Z,4.60
2019-05-02T04:49:58.562Z,4.10
2019-05-02T04:55:14.550Z,4.97
2019-05-02T05:00:50.162Z,4.30
2019-05-02T05:05:48.654Z,4.37
2019-05-02T05:08:26.046Z,4.37
2019-05-02T05:13:23.291Z,4.23
2019-05-02T05:15:51.995Z,3.87
2019-05-02T05:18:21.059Z,4.13
2019-05-02T05:20:53.049Z,4.10
2019-05-02T05:31:11.306Z,4.23
2019-05-02T05:33:39.753Z,3.97
2019-05-02T05:36:08.445Z,4.13
2019-05-02T05:38:40.560Z,4.00
2019-05-02T05:41:12.840Z,3.60
2019-05-02T05:44:23.347Z,3.97
2019-05-02T05:46:49.472Z,3.73
2019-05-02T05:49:21.777Z,3.50
2019-05-02T05:51:49.529Z,4.30
2019-05-02T06:02:13.071Z,4.03
2019-05-02T06:04:38.766Z,3.60
2019-05-02T06:10:21.732Z,3.70
2019-05-02T06:12:50.129Z,3.80
2019-05-02T06:15:39.016Z,3.70
2019-05-02T06:18:08.126Z,4.07
2019-05-02T06:20:36.521Z,3.50
2019-05-02T06:25:58.669Z,3.50
2019-05-02T06:28:27.114Z,3.70
2019-05-02T06:30:55.519Z,3.77
2019-05-02T06:33:25.828Z,3.80
2019-05-02T06:38:28.125Z,3.43
2019-05-02T06:41:20.528Z,3.70
2019-05-02T06:43:47.024Z,3.43
2019-05-02T06:46:21.220Z,3.73
2019-05-02T06:48:48.129Z,3.90
2019-05-02T06:51:35.561Z,3.83
2019-05-02T06:59:32.589Z,3.40
2019-05-02T07:02:01.050Z,3.43
2019-05-02T07:07:25.099Z,3.87
2019-05-02T07:10:44.051Z,3.10
2019-05-02T07:13:10.701Z,3.37
2019-05-02T07:15:52.819Z,3.53
2019-05-02T07:18:59.672Z,3.10
2019-05-02T07:24:02.637Z,3.27
2019-05-02T07:26:31.056Z,3.30
2019-05-02T07:28:59.453Z,3.00
2019-05-02T07:31:27.862Z,3.03
2019-05-02T07:33:56.292Z,3.50
2019-05-02T07:36:24.689Z,3.20
2019-05-02T07:38:57.543Z,3.90
2019-05-02T07:43:57.551Z,3.50
2019-05-02T07:46:27.236Z,3.47
2019-05-02T07:48:56.658Z,3.47
2019-05-02T07:51:25.765Z,3.00
2019-05-02T07:53:55.677Z,3.40
2019-05-02T07:56:24.306Z,3.33
2019-05-02T07:59:32.639Z,3.43
2019-05-02T08:02:01.029Z,3.30
2019-05-02T08:04:48.727Z,3.30
2019-05-02T08:07:21.107Z,3.40
2019-05-02T08:09:47.253Z,3.93
2019-05-02T08:12:34.869Z,3.27
2019-05-02T08:18:11.341Z,3.70
2019-05-02T08:20:39.806Z,3.13
2019-05-02T08:23:08.206Z,3.40
2019-05-02T08:25:36.661Z,3.47
2019-05-02T08:28:47.040Z,3.60
2019-05-02T08:34:05.777Z,3.27
2019-05-02T08:36:32.349Z,3.30
2019-05-02T08:39:00.758Z,3.33
2019-05-02T08:41:29.174Z,3.20
2019-05-02T08:46:31.184Z,3.50
2019-05-02T08:48:59.584Z,3.60
2019-05-02T08:51:28.014Z,3.80
2019-05-02T08:53:57.236Z,3.83
2019-05-02T08:56:26.600Z,3.73
2019-05-02T08:58:55.015Z,3.43
2019-05-02T09:01:34.527Z,3.63
2019-05-02T09:03:56.683Z,3.50
2019-05-02T09:06:24.167Z,3.70
2019-05-02T09:08:53.784Z,3.67
2019-05-02T09:11:22.179Z,3.10
2019-05-02T09:13:52.481Z,3.60
2019-05-02T09:16:21.566Z,3.70
2019-05-02T09:18:53.972Z,3.80
2019-05-02T09:21:21.973Z,3.53
2019-05-02T09:23:51.743Z,3.57
2019-05-02T09:26:33.267Z,3.50
2019-05-02T09:28:51.753Z,3.77
2019-05-02T09:31:22.639Z,4.00
2019-05-02T09:33:52.095Z,3.33
2019-05-02T09:36:22.755Z,3.43
2019-05-02T09:38:56.019Z,3.40
2019-05-02T09:41:22.263Z,3.90
2019-05-02T09:46:26.608Z,3.60
2019-05-02T09:48:57.043Z,3.30
2019-05-02T09:51:25.146Z,3.53
2019-05-02T09:54:12.954Z,3.37
2019-05-02T09:56:43.083Z,3.20
2019-05-02T09:59:26.199Z,3.33
2019-05-02T10:02:02.020Z,3.83
2019-05-02T10:04:32.593Z,3.53
2019-05-02T10:07:02.532Z,3.20
2019-05-02T10:12:45.900Z,3.80
2019-05-02T10:15:54.263Z,3.20
2019-05-02T10:18:43.101Z,3.73
2019-05-02T10:21:13.487Z,3.33
2019-05-02T10:29:28.399Z,3.27
2019-05-02T10:31:54.083Z,2.83
2019-05-02T10:34:22.806Z,3.20
2019-05-02T10:36:58.705Z,2.90
2019-05-02T10:39:42.350Z,2.93
2019-05-02T10:42:12.525Z,3.30
2019-05-02T10:44:42.728Z,3.53
2019-05-02T10:47:12.885Z,3.50
2019-05-02T10:52:34.170Z,3.10
2019-05-02T10:55:02.620Z,3.07
2019-05-02T10:57:32.633Z,2.90
2019-05-02T11:06:01.134Z,3.10
2019-05-02T11:08:26.459Z,3.00
2019-05-02T11:11:14.112Z,3.17
2019-05-02T11:14:05.748Z,2.97
2019-05-02T11:16:52.469Z,3.20
2019-05-02T11:19:41.923Z,2.90
2019-05-02T11:22:12.122Z,4.07
2019-05-02T11:24:41.821Z,3.27
2019-05-02T11:27:12.678Z,2.80
2019-05-02T11:29:42.506Z,3.20
2019-05-02T11:32:30.238Z,3.30
2019-05-02T11:34:58.660Z,3.53
2019-05-02T11:37:27.061Z,3.07
2019-05-02T11:39:59.962Z,3.03
2019-05-02T11:42:27.258Z,3.63
2019-05-02T11:44:55.716Z,4.40
2019-05-02T11:47:26.626Z,3.33
2019-05-02T11:49:55.964Z,3.03
2019-05-02T11:52:27.471Z,3.07
2019-05-02T11:54:54.533Z,3.33
2019-05-02T11:57:28.394Z,3.77
2019-05-02T11:59:53.134Z,3.90
2019-05-02T12:03:02.214Z,2.93
2019-05-02T12:05:52.422Z,3.90
2019-05-02T12:11:17.700Z,3.50
2019-05-02T12:13:47.245Z,2.93
2019-05-02T12:16:35.315Z,3.07
2019-05-02T12:22:16.715Z,2.93
2019-05-02T12:24:45.278Z,3.53
2019-05-02T12:27:12.129Z,3.43
2019-05-02T12:32:15.671Z,3.90
2019-05-02T12:35:04.475Z,3.00
2019-05-02T12:37:32.871Z,3.43
2019-05-02T12:40:02.721Z,3.20
2019-05-02T12:42:32.936Z,3.23
2019-05-02T12:45:02.838Z,2.80
2019-05-02T12:47:31.964Z,2.50
2019-05-02T12:50:03.183Z,2.73
2019-05-02T12:52:32.139Z,2.83
2019-05-02T12:55:02.394Z,3.43
2019-05-02T12:57:32.273Z,5.37
2019-05-02T13:00:19.871Z,3.47
2019-05-02T13:03:07.681Z,2.83
2019-05-02T13:05:36.080Z,2.90
2019-05-02T13:08:04.554Z,3.80
2019-05-02T13:10:54.050Z,2.63
2019-05-02T13:32:27.329Z,2.80
2019-05-02T13:35:15.004Z,2.80
2019-05-02T13:38:04.230Z,2.80
2019-05-02T13:48:58.295Z,2.50
2019-05-02T13:51:26.696Z,2.70
2019-05-02T13:57:03.411Z,2.43
2019-05-02T13:59:52.560Z,2.80
2019-05-02T14:03:02.858Z,3.07
2019-05-02T14:05:53.652Z,2.60
2019-05-02T14:08:42.989Z,4.77
2019-05-02T14:11:31.759Z,2.43
2019-05-02T14:16:33.919Z,2.50
2019-05-02T14:19:02.949Z,2.50
2019-05-02T14:21:32.455Z,2.97
2019-05-02T14:24:01.735Z,3.33
2019-05-02T14:26:43.313Z,2.83
2019-05-02T14:29:12.610Z,2.63
2019-05-02T14:31:42.193Z,2.73
2019-05-02T14:34:32.858Z,2.77
2019-05-02T14:37:02.041Z,2.70
2019-05-02T14:39:32.534Z,2.90
2019-05-02T14:42:02.089Z,2.43
2019-05-02T14:44:59.965Z,2.50
2019-05-02T14:47:02.265Z,2.67
2019-05-02T14:49:32.304Z,3.97
2019-05-02T14:52:06.911Z,7.47
2019-05-02T14:54:32.580Z,2.30
2019-05-02T14:57:27.075Z,3.10
2019-05-02T15:08:11.894Z,2.73
2019-05-02T15:10:50.687Z,3.10
2019-05-02T15:13:12.582Z,2.50
2019-05-02T15:15:43.493Z,3.80
2019-05-02T15:18:15.873Z,2.80
2019-05-02T15:20:42.430Z,2.47
2019-05-02T15:23:19.364Z,2.43
2019-05-02T15:25:42.490Z,2.30
2019-05-02T15:31:23.513Z,4.47
2019-05-02T15:34:08.381Z,2.47
2019-05-02T15:41:48.600Z,2.40
2019-05-02T15:44:18.905Z,2.50
2019-05-02T15:54:55.531Z,2.27
2019-05-02T15:57:24.279Z,2.30
2019-05-02T15:59:51.661Z,2.70
2019-05-02T16:05:02.342Z,2.50
2019-05-02T16:10:56.886Z,2.40
2019-05-02T16:13:25.289Z,2.40
2019-05-02T16:15:57.157Z,2.60
2019-05-02T16:18:24.012Z,2.70
2019-05-02T16:26:17.083Z,2.43
2019-05-02T16:28:45.662Z,2.63
2019-05-02T16:36:39.253Z,2.30
2019-05-02T16:39:49.659Z,2.00
2019-05-02T16:42:17.718Z,2.07
2019-05-02T16:44:46.118Z,2.10
2019-05-02T16:48:03.253Z,2.20
2019-05-02T16:56:07.244Z,2.50
2019-05-02T16:58:37.985Z,2.47
2019-05-02T17:01:07.528Z,2.33
2019-05-02T17:09:44.936Z,1.87
2019-05-02T17:15:26.027Z,2.27
2019-05-02T17:17:54.208Z,2.00
2019-05-02T17:20:22.205Z,1.97
2019-05-02T17:26:05.966Z,2.07
2019-05-02T17:31:23.478Z,2.20
2019-05-02T17:33:54.413Z,1.70
2019-05-02T17:36:28.527Z,1.90
2019-05-02T17:38:54.426Z,1.90
2019-05-02T17:41:22.691Z,1.83
2019-05-02T17:43:51.084Z,2.10
2019-05-02T17:46:21.940Z,1.90
2019-05-02T17:48:52.742Z,1.80
2019-05-02T17:54:09.020Z,2.23
2019-05-02T17:56:57.530Z,2.07
2019-05-02T17:59:28.222Z,2.10
2019-05-02T18:01:56.801Z,2.10
2019-05-02T18:04:25.262Z,2.20
2019-05-02T18:09:47.104Z,2.10
2019-05-02T18:12:59.633Z,2.07
2019-05-02T18:15:29.829Z,2.10
2019-05-02T18:17:59.750Z,2.40
2019-05-02T18:20:26.271Z,2.40
2019-05-02T18:22:54.664Z,2.40
2019-05-02T18:25:25.231Z,2.20
2019-05-02T18:30:27.771Z,2.97
2019-05-02T18:32:57.725Z,2.27
2019-05-02T18:35:46.986Z,2.67
2019-05-02T18:40:51.753Z,2.53
2019-05-02T18:45:58.185Z,2.40
2019-05-02T18:48:24.066Z,3.07
2019-05-02T18:50:52.783Z,3.50
2019-05-02T18:58:53.468Z,3.43
2019-05-02T19:01:42.704Z,3.20
2019-05-02T19:04:13.100Z,2.97
2019-05-02T19:06:42.044Z,3.13
2019-05-02T19:09:53.900Z,3.37
2019-05-02T19:12:25.783Z,3.33
2019-05-02T19:14:52.786Z,3.10
2019-05-02T19:19:56.554Z,3.23
2019-05-02T19:22:24.983Z,3.63
2019-05-02T19:24:53.379Z,3.53
2019-05-02T19:27:42.935Z,3.53
2019-05-02T19:33:23.404Z,3.23
2019-05-02T19:36:10.920Z,3.87
2019-05-02T19:41:13.153Z,3.93
2019-05-02T19:43:49.345Z,3.90
2019-05-02T19:46:34.729Z,3.40
2019-05-02T19:49:02.094Z,3.50
2019-05-02T19:54:26.190Z,3.30
2019-05-02T19:56:54.626Z,4.20
2019-05-02T20:00:06.508Z,4.20
2019-05-02T20:02:37.383Z,3.83
2019-05-02T20:10:32.281Z,3.73
2019-05-02T20:13:03.111Z,4.00
2019-05-02T20:18:21.193Z,4.63
2019-05-02T20:21:29.520Z,4.40
2019-05-02T20:26:32.597Z,4.67
2019-05-02T20:31:36.476Z,5.10
2019-05-02T20:34:44.918Z,5.27
2019-05-02T20:37:13.316Z,5.80
2019-05-02T20:39:41.770Z,5.23
2019-05-02T20:42:11.984Z,12.07
2019-05-02T20:44:41.839Z,10.73
2019-05-02T20:47:52.389Z,6.17
2019-05-02T20:53:12.733Z,6.00
2019-05-02T20:55:41.674Z,9.57
2019-05-02T20:58:10.341Z,16.20
2019-05-02T21:03:33.356Z,7.93
2019-05-02T21:09:52.359Z,4.20
2019-05-02T21:18:02.438Z,3.13
2019-05-02T21:20:32.633Z,2.70
2019-05-02T21:23:02.620Z,2.40
2019-05-02T21:26:11.152Z,1.90
2019-05-02T21:28:39.553Z,1.70
2019-05-02T21:31:27.290Z,1.70
2019-05-02T21:33:55.684Z,1.17
2019-05-02T21:36:43.506Z,1.37
2019-05-02T21:39:52.141Z,1.40
2019-05-02T21:42:22.613Z,1.33
2019-05-02T21:44:52.144Z,1.40
2019-05-02T21:47:22.329Z,1.50
2019-05-02T21:53:08.105Z,1.53
2019-05-02T21:55:55.610Z,1.30
2019-05-02T21:58:24.029Z,1.00
2019-05-02T22:01:32.903Z,1.20
2019-05-02T22:04:02.484Z,1.80
2019-05-02T22:09:39.009Z,1.00
2019-05-02T22:12:26.594Z,0.80
2019-05-02T22:17:29.419Z,1.03
2019-05-02T22:19:57.840Z,0.67
2019-05-02T22:22:26.273Z,0.80
2019-05-02T22:24:54.668Z,1.30
2019-05-02T22:29:57.100Z,0.90
2019-05-02T22:35:01.866Z,0.73
2019-05-02T22:40:44.342Z,0.50
2019-05-02T22:45:46.982Z,0.63
2019-05-02T22:48:15.372Z,0.53
2019-05-02T22:50:43.764Z,0.40
2019-05-02T22:55:45.784Z,0.40
2019-05-02T22:58:14.182Z,0.50
2019-05-02T23:00:42.669Z,0.63
2019-05-02T23:03:12.555Z,0.50
2019-05-02T23:05:42.129Z,0.50
2019-05-02T23:08:30.532Z,0.53
2019-05-02T23:10:58.937Z,0.57
2019-05-02T23:13:27.322Z,0.43
2019-05-02T23:18:31.841Z,0.80
2019-05-02T23:23:33.623Z,0.53
2019-05-02T23:28:59.871Z,0.60
2019-05-02T23:31:47.458Z,1.13
2019-05-02T23:34:15.890Z,0.80
2019-05-02T23:37:03.614Z,0.73
2019-05-02T23:42:06.548Z,0.63
2019-05-02T23:47:09.064Z,0.90
2019-05-02T23:52:11.796Z,1.07
2019-05-02T23:54:49.911Z,0.70
2019-05-02T23:57:12.125Z,0.90
2019-05-02T23:59:42.413Z,0.90
